sensor_id;sensor_type;location;lat;lon;timestamp;pressure;altitude;pressure_sealevel;temperature;humidity
10700;BME280;5401;41.986;21.452;2023-03-21T00:01:31;98291.38;;;13.37;48.33
10700;BME280;5401;41.986;21.452;2023-03-21T00:03:58;98293.00;;;13.38;47.28
10700;BME280;5401;41.986;21.452;2023-03-21T00:06:26;98279.09;;;13.29;47.91
10700;BME280;5401;41.986;21.452;2023-03-21T00:08:54;98289.50;;;13.37;47.35
10700;BME280;5401;41.986;21.452;2023-03-21T00:11:21;98283.28;;;13.37;48.85
10700;BME280;5401;41.986;21.452;2023-03-21T00:13:50;98277.09;;;13.36;48.14
10700;BME280;5401;41.986;21.452;2023-03-21T00:16:18;98273.59;;;13.36;47.79
10700;BME280;5401;41.986;21.452;2023-03-21T00:18:47;98269.38;;;13.28;48.17
10700;BME280;5401;41.986;21.452;2023-03-21T00:21:18;98260.38;;;13.23;48.38
10700;BME280;5401;41.986;21.452;2023-03-21T00:23:47;98269.97;;;13.30;49.15
10700;BME280;5401;41.986;21.452;2023-03-21T00:26:16;98256.16;;;13.27;48.87
10700;BME280;5401;41.986;21.452;2023-03-21T00:28:44;98253.94;;;13.24;48.86
10700;BME280;5401;41.986;21.452;2023-03-21T00:31:13;98247.38;;;13.20;49.16
10700;BME280;5401;41.986;21.452;2023-03-21T00:33:41;98251.47;;;13.11;48.77
10700;BME280;5401;41.986;21.452;2023-03-21T00:36:10;98205.06;;;12.75;48.69
10700;BME280;5401;41.986;21.452;2023-03-21T00:38:40;98256.81;;;13.00;48.04
10700;BME280;5401;41.986;21.452;2023-03-21T00:41:10;98246.50;;;12.85;49.22
10700;BME280;5401;41.986;21.452;2023-03-21T00:43:42;98268.63;;;12.99;49.51
10700;BME280;5401;41.986;21.452;2023-03-21T00:46:12;98255.94;;;12.88;48.72
10700;BME280;5401;41.986;21.452;2023-03-21T00:48:42;98266.59;;;12.83;49.54
10700;BME280;5401;41.986;21.452;2023-03-21T00:51:17;98259.25;;;12.72;49.06
10700;BME280;5401;41.986;21.452;2023-03-21T00:53:46;98248.69;;;12.59;48.90
10700;BME280;5401;41.986;21.452;2023-03-21T00:56:14;98259.31;;;12.54;49.33
10700;BME280;5401;41.986;21.452;2023-03-21T00:58:41;98254.00;;;12.48;49.66
10700;BME280;5401;41.986;21.452;2023-03-21T01:01:09;98250.59;;;12.41;49.27
10700;BME280;5401;41.986;21.452;2023-03-21T01:03:38;98249.47;;;12.48;49.18
10700;BME280;5401;41.986;21.452;2023-03-21T01:06:17;98241.41;;;12.48;50.05
10700;BME280;5401;41.986;21.452;2023-03-21T01:08:47;98237.69;;;12.49;48.90
10700;BME280;5401;41.986;21.452;2023-03-21T01:11:18;98243.25;;;12.48;49.35
10700;BME280;5401;41.986;21.452;2023-03-21T01:13:46;98232.31;;;12.49;49.16
10700;BME280;5401;41.986;21.452;2023-03-21T01:16:17;98207.25;;;12.38;49.27
10700;BME280;5401;41.986;21.452;2023-03-21T01:18:46;98229.84;;;12.48;50.09
10700;BME280;5401;41.986;21.452;2023-03-21T01:21:14;98230.22;;;12.51;49.72
10700;BME280;5401;41.986;21.452;2023-03-21T01:23:42;98198.94;;;12.28;49.80
10700;BME280;5401;41.986;21.452;2023-03-21T01:26:11;98229.84;;;12.48;49.43
10700;BME280;5401;41.986;21.452;2023-03-21T01:28:40;98234.19;;;12.49;49.47
10700;BME280;5401;41.986;21.452;2023-03-21T01:31:10;98238.94;;;12.47;49.88
10700;BME280;5401;41.986;21.452;2023-03-21T01:33:39;98232.28;;;12.38;50.40
10700;BME280;5401;41.986;21.452;2023-03-21T01:36:09;98239.63;;;12.43;50.71
10700;BME280;5401;41.986;21.452;2023-03-21T01:38:41;98229.44;;;12.33;49.99
10700;BME280;5401;41.986;21.452;2023-03-21T01:41:13;98239.03;;;12.41;49.86
10700;BME280;5401;41.986;21.452;2023-03-21T01:43:45;98232.88;;;12.40;50.61
10700;BME280;5401;41.986;21.452;2023-03-21T01:46:37;98233.09;;;12.39;51.08
10700;BME280;5401;41.986;21.452;2023-03-21T01:49:13;98228.16;;;12.36;49.91
10700;BME280;5401;41.986;21.452;2023-03-21T01:51:47;98229.22;;;12.35;50.90
10700;BME280;5401;41.986;21.452;2023-03-21T01:54:18;98224.53;;;12.30;51.09
10700;BME280;5401;41.986;21.452;2023-03-21T01:56:53;98220.28;;;12.23;50.78
10700;BME280;5401;41.986;21.452;2023-03-21T01:59:26;98219.09;;;12.19;50.55
10700;BME280;5401;41.986;21.452;2023-03-21T02:01:58;98216.88;;;12.16;50.97
10700;BME280;5401;41.986;21.452;2023-03-21T02:04:27;98212.91;;;12.18;50.96
10700;BME280;5401;41.986;21.452;2023-03-21T02:06:59;98211.50;;;12.16;50.59
10700;BME280;5401;41.986;21.452;2023-03-21T02:09:32;98215.22;;;12.15;50.55
10700;BME280;5401;41.986;21.452;2023-03-21T02:12:00;98204.34;;;12.10;51.19
10700;BME280;5401;41.986;21.452;2023-03-21T02:14:29;98210.97;;;12.08;50.79
10700;BME280;5401;41.986;21.452;2023-03-21T02:17:06;98195.16;;;12.00;51.05
10700;BME280;5401;41.986;21.452;2023-03-21T02:20:12;98199.97;;;11.98;51.96
10700;BME280;5401;41.986;21.452;2023-03-21T02:23:01;98197.94;;;11.93;51.53
10700;BME280;5401;41.986;21.452;2023-03-21T02:25:53;98197.50;;;11.96;51.36
10700;BME280;5401;41.986;21.452;2023-03-21T02:28:27;98197.28;;;11.98;51.75
10700;BME280;5401;41.986;21.452;2023-03-21T02:31:17;98180.81;;;11.94;51.24
10700;BME280;5401;41.986;21.452;2023-03-21T02:34:02;98162.72;;;11.90;51.72
10700;BME280;5401;41.986;21.452;2023-03-21T02:43:14;98178.88;;;11.83;51.79
10700;BME280;5401;41.986;21.452;2023-03-21T02:45:46;98186.78;;;11.78;51.88
10700;BME280;5401;41.986;21.452;2023-03-21T02:48:20;98167.63;;;11.75;51.87
10700;BME280;5401;41.986;21.452;2023-03-21T02:50:52;98184.31;;;11.77;51.88
10700;BME280;5401;41.986;21.452;2023-03-21T02:53:29;98180.72;;;11.65;51.63
10700;BME280;5401;41.986;21.452;2023-03-21T02:55:58;98184.09;;;11.61;51.85
10700;BME280;5401;41.986;21.452;2023-03-21T02:58:27;98182.47;;;11.60;52.32
10700;BME280;5401;41.986;21.452;2023-03-21T03:00:57;98191.53;;;11.59;52.37
10700;BME280;5401;41.986;21.452;2023-03-21T03:03:24;98188.25;;;11.57;52.38
10700;BME280;5401;41.986;21.452;2023-03-21T03:05:54;98192.81;;;11.56;51.91
10700;BME280;5401;41.986;21.452;2023-03-21T03:08:33;98182.28;;;11.55;52.57
10700;BME280;5401;41.986;21.452;2023-03-21T03:11:16;98178.19;;;11.52;52.14
10700;BME280;5401;41.986;21.452;2023-03-21T03:14:07;98180.44;;;11.55;52.00
10700;BME280;5401;41.986;21.452;2023-03-21T03:16:42;98188.31;;;11.50;52.42
10700;BME280;5401;41.986;21.452;2023-03-21T03:19:20;98181.69;;;11.29;52.64
10700;BME280;5401;41.986;21.452;2023-03-21T03:21:56;98190.34;;;11.13;52.79
10700;BME280;5401;41.986;21.452;2023-03-21T03:24:30;98193.31;;;10.99;53.35
10700;BME280;5401;41.986;21.452;2023-03-21T03:27:04;98190.22;;;11.02;53.46
10700;BME280;5401;41.986;21.452;2023-03-21T03:29:34;98183.06;;;10.96;53.54
10700;BME280;5401;41.986;21.452;2023-03-21T03:32:07;98200.66;;;11.09;53.47
10700;BME280;5401;41.986;21.452;2023-03-21T03:34:39;98201.06;;;11.06;53.45
10700;BME280;5401;41.986;21.452;2023-03-21T03:37:11;98206.41;;;11.13;53.41
10700;BME280;5401;41.986;21.452;2023-03-21T03:39:45;98212.72;;;11.18;53.34
10700;BME280;5401;41.986;21.452;2023-03-21T03:42:18;98210.44;;;11.22;53.39
10700;BME280;5401;41.986;21.452;2023-03-21T03:44:46;98203.00;;;11.24;53.48
10700;BME280;5401;41.986;21.452;2023-03-21T03:47:17;98211.84;;;11.24;53.42
10700;BME280;5401;41.986;21.452;2023-03-21T03:49:54;98212.06;;;11.23;53.63
10700;BME280;5401;41.986;21.452;2023-03-21T03:52:27;98214.53;;;11.24;53.56
10700;BME280;5401;41.986;21.452;2023-03-21T03:54:57;98210.81;;;11.25;53.52
10700;BME280;5401;41.986;21.452;2023-03-21T03:57:25;98212.44;;;11.26;53.57
10700;BME280;5401;41.986;21.452;2023-03-21T03:59:54;98220.28;;;11.28;53.94
10700;BME280;5401;41.986;21.452;2023-03-21T04:02:22;98211.84;;;11.24;53.63
10700;BME280;5401;41.986;21.452;2023-03-21T04:04:49;98211.44;;;11.27;53.71
10700;BME280;5401;41.986;21.452;2023-03-21T04:07:18;98213.88;;;11.29;53.58
10700;BME280;5401;41.986;21.452;2023-03-21T04:09:46;98210.75;;;11.32;53.87
10700;BME280;5401;41.986;21.452;2023-03-21T04:12:15;98206.22;;;11.32;53.74
10700;BME280;5401;41.986;21.452;2023-03-21T04:14:43;98200.03;;;11.32;53.84
10700;BME280;5401;41.986;21.452;2023-03-21T04:17:11;98183.91;;;11.14;54.07
10700;BME280;5401;41.986;21.452;2023-03-21T04:19:38;98204.41;;;11.26;54.05
10700;BME280;5401;41.986;21.452;2023-03-21T04:22:06;98204.19;;;11.28;54.14
10700;BME280;5401;41.986;21.452;2023-03-21T04:24:34;98208.75;;;11.27;53.91
10700;BME280;5401;41.986;21.452;2023-03-21T04:27:02;98206.28;;;11.26;54.53
10700;BME280;5401;41.986;21.452;2023-03-21T04:29:32;98208.56;;;11.22;54.27
10700;BME280;5401;41.986;21.452;2023-03-21T04:31:59;98207.44;;;11.12;54.23
10700;BME280;5401;41.986;21.452;2023-03-21T04:34:28;98207.09;;;11.02;54.15
10700;BME280;5401;41.986;21.452;2023-03-21T04:36:56;98202.00;;;10.94;54.37
10700;BME280;5401;41.986;21.452;2023-03-21T04:39:23;98205.28;;;10.96;54.42
10700;BME280;5401;41.986;21.452;2023-03-21T04:41:51;98200.81;;;10.90;54.50
10700;BME280;5401;41.986;21.452;2023-03-21T04:44:18;98180.81;;;10.68;54.42
10700;BME280;5401;41.986;21.452;2023-03-21T04:46:47;98206.47;;;10.76;54.65
10700;BME280;5401;41.986;21.452;2023-03-21T04:49:15;98203.03;;;10.69;54.48
10700;BME280;5401;41.986;21.452;2023-03-21T04:51:43;98200.84;;;10.60;54.70
10700;BME280;5401;41.986;21.452;2023-03-21T04:54:11;98202.13;;;10.51;54.84
10700;BME280;5401;41.986;21.452;2023-03-21T04:56:39;98210.97;;;10.51;55.32
10700;BME280;5401;41.986;21.452;2023-03-21T04:59:11;98196.84;;;10.44;54.93
10700;BME280;5401;41.986;21.452;2023-03-21T05:01:39;98219.00;;;10.51;55.41
10700;BME280;5401;41.986;21.452;2023-03-21T05:04:11;98198.75;;;10.31;55.14
10700;BME280;5401;41.986;21.452;2023-03-21T05:06:40;98209.28;;;10.26;55.64
10700;BME280;5401;41.986;21.452;2023-03-21T05:09:09;98211.31;;;10.31;55.62
10700;BME280;5401;41.986;21.452;2023-03-21T05:11:38;98219.72;;;10.40;55.58
10700;BME280;5401;41.986;21.452;2023-03-21T05:14:08;98214.47;;;10.52;55.50
10700;BME280;5401;41.986;21.452;2023-03-21T05:16:38;98205.78;;;10.63;56.30
10700;BME280;5401;41.986;21.452;2023-03-21T05:19:15;98198.91;;;10.73;55.50
10700;BME280;5401;41.986;21.452;2023-03-21T05:21:43;98207.28;;;10.83;55.75
10700;BME280;5401;41.986;21.452;2023-03-21T05:24:12;98212.31;;;10.97;55.58
10700;BME280;5401;41.986;21.452;2023-03-21T05:26:41;98209.72;;;11.08;55.32
10700;BME280;5401;41.986;21.452;2023-03-21T05:29:15;98226.44;;;11.28;54.89
10700;BME280;5401;41.986;21.452;2023-03-21T05:31:44;98217.47;;;11.40;54.77
10700;BME280;5401;41.986;21.452;2023-03-21T05:34:14;98222.44;;;11.43;55.08
10700;BME280;5401;41.986;21.452;2023-03-21T05:36:41;98227.94;;;11.48;55.09
10700;BME280;5401;41.986;21.452;2023-03-21T05:39:09;98224.88;;;11.45;55.17
10700;BME280;5401;41.986;21.452;2023-03-21T05:41:36;98223.25;;;11.44;54.71
10700;BME280;5401;41.986;21.452;2023-03-21T05:44:04;98219.69;;;11.50;54.81
10700;BME280;5401;41.986;21.452;2023-03-21T05:46:32;98219.63;;;11.56;55.09
10700;BME280;5401;41.986;21.452;2023-03-21T05:48:59;98214.19;;;11.63;55.02
10700;BME280;5401;41.986;21.452;2023-03-21T05:51:28;98221.34;;;11.69;54.96
10700;BME280;5401;41.986;21.452;2023-03-21T05:53:56;98224.91;;;11.80;55.00
10700;BME280;5401;41.986;21.452;2023-03-21T05:56:23;98215.31;;;11.91;54.40
10700;BME280;5401;41.986;21.452;2023-03-21T05:58:51;98213.94;;;12.00;54.85
10700;BME280;5401;41.986;21.452;2023-03-21T06:01:19;98216.34;;;12.08;54.62
10700;BME280;5401;41.986;21.452;2023-03-21T06:03:46;98222.06;;;12.11;54.03
10700;BME280;5401;41.986;21.452;2023-03-21T06:06:14;98217.09;;;12.14;54.27
10700;BME280;5401;41.986;21.452;2023-03-21T06:08:43;98218.72;;;12.15;54.18
10700;BME280;5401;41.986;21.452;2023-03-21T06:11:19;98224.66;;;12.17;54.06
10700;BME280;5401;41.986;21.452;2023-03-21T06:13:49;98224.91;;;12.16;53.89
10700;BME280;5401;41.986;21.452;2023-03-21T06:16:17;98224.31;;;12.14;54.91
10700;BME280;5401;41.986;21.452;2023-03-21T06:18:44;98218.59;;;12.11;54.70
10700;BME280;5401;41.986;21.452;2023-03-21T06:21:12;98210.16;;;12.07;54.59
10700;BME280;5401;41.986;21.452;2023-03-21T06:23:40;98221.66;;;12.14;54.55
10700;BME280;5401;41.986;21.452;2023-03-21T06:26:09;98217.97;;;12.26;53.76
10700;BME280;5401;41.986;21.452;2023-03-21T06:28:36;98219.59;;;12.27;54.23
10700;BME280;5401;41.986;21.452;2023-03-21T06:31:04;98216.31;;;12.25;54.16
10700;BME280;5401;41.986;21.452;2023-03-21T06:33:32;98215.94;;;12.22;53.98
10700;BME280;5401;41.986;21.452;2023-03-21T06:35:59;98225.06;;;12.21;54.75
10700;BME280;5401;41.986;21.452;2023-03-21T06:38:27;98224.84;;;12.22;54.83
10700;BME280;5401;41.986;21.452;2023-03-21T06:40:54;98223.66;;;12.18;54.19
10700;BME280;5401;41.986;21.452;2023-03-21T06:43:23;98223.56;;;12.25;54.02
10700;BME280;5401;41.986;21.452;2023-03-21T06:45:51;98230.50;;;12.32;54.05
10700;BME280;5401;41.986;21.452;2023-03-21T06:48:18;98228.16;;;12.36;54.96
10700;BME280;5401;41.986;21.452;2023-03-21T06:50:47;98228.63;;;12.33;55.11
10700;BME280;5401;41.986;21.452;2023-03-21T06:53:15;98227.34;;;12.35;53.95
10700;BME280;5401;41.986;21.452;2023-03-21T06:55:48;98236.72;;;12.44;53.82
10700;BME280;5401;41.986;21.452;2023-03-21T06:58:15;98235.31;;;12.42;54.35
10700;BME280;5401;41.986;21.452;2023-03-21T07:00:44;98234.41;;;12.47;54.11
10700;BME280;5401;41.986;21.452;2023-03-21T07:03:12;98220.06;;;12.53;54.76
10700;BME280;5401;41.986;21.452;2023-03-21T07:05:40;98216.09;;;12.56;54.65
10700;BME280;5401;41.986;21.452;2023-03-21T07:08:08;98213.41;;;12.56;54.46
10700;BME280;5401;41.986;21.452;2023-03-21T07:10:38;98205.78;;;12.71;54.88
10700;BME280;5401;41.986;21.452;2023-03-21T07:13:05;98198.81;;;12.81;54.39
10700;BME280;5401;41.986;21.452;2023-03-21T07:15:33;98204.50;;;13.14;54.62
10700;BME280;5401;41.986;21.452;2023-03-21T07:18:05;98208.47;;;13.34;53.09
10700;BME280;5401;41.986;21.452;2023-03-21T07:20:33;98209.88;;;13.59;54.17
10700;BME280;5401;41.986;21.452;2023-03-21T07:23:01;98222.41;;;13.76;53.69
10700;BME280;5401;41.986;21.452;2023-03-21T07:25:28;98231.72;;;13.96;52.96
10700;BME280;5401;41.986;21.452;2023-03-21T07:27:56;98224.09;;;13.93;53.32
10700;BME280;5401;41.986;21.452;2023-03-21T07:30:24;98218.16;;;14.03;52.56
10700;BME280;5401;41.986;21.452;2023-03-21T07:32:52;98222.25;;;14.05;53.31
10700;BME280;5401;41.986;21.452;2023-03-21T07:35:21;98222.59;;;14.09;52.83
10700;BME280;5401;41.986;21.452;2023-03-21T07:37:48;98216.72;;;14.12;52.86
10700;BME280;5401;41.986;21.452;2023-03-21T07:40:16;98210.75;;;14.10;52.99
10700;BME280;5401;41.986;21.452;2023-03-21T07:42:44;98215.59;;;14.08;52.14
10700;BME280;5401;41.986;21.452;2023-03-21T07:45:11;98197.53;;;13.97;53.29
10700;BME280;5401;41.986;21.452;2023-03-21T07:47:40;98221.09;;;14.01;53.13
10700;BME280;5401;41.986;21.452;2023-03-21T07:50:08;98220.38;;;13.94;52.44
10700;BME280;5401;41.986;21.452;2023-03-21T07:52:37;98212.22;;;13.78;52.82
10700;BME280;5401;41.986;21.452;2023-03-21T07:55:05;98215.38;;;13.64;53.32
10700;BME280;5401;41.986;21.452;2023-03-21T07:57:33;98209.78;;;13.54;53.66
10700;BME280;5401;41.986;21.452;2023-03-21T08:00:01;98212.59;;;13.48;53.80
10700;BME280;5401;41.986;21.452;2023-03-21T08:02:29;98213.03;;;13.56;52.78
10700;BME280;5401;41.986;21.452;2023-03-21T08:04:57;98219.69;;;13.65;52.50
10700;BME280;5401;41.986;21.452;2023-03-21T08:07:24;98217.38;;;13.68;53.39
10700;BME280;5401;41.986;21.452;2023-03-21T08:09:54;98223.22;;;13.77;52.49
10700;BME280;5401;41.986;21.452;2023-03-21T08:12:22;98234.78;;;13.89;53.40
10700;BME280;5401;41.986;21.452;2023-03-21T08:14:50;98223.53;;;13.91;53.28
10700;BME280;5401;41.986;21.452;2023-03-21T08:17:17;98212.44;;;13.88;52.77
10700;BME280;5401;41.986;21.452;2023-03-21T08:19:45;98203.56;;;13.76;52.66
10700;BME280;5401;41.986;21.452;2023-03-21T08:22:12;98209.88;;;13.70;53.33
10700;BME280;5401;41.986;21.452;2023-03-21T08:24:40;98204.97;;;13.56;53.13
10700;BME280;5401;41.986;21.452;2023-03-21T08:27:10;98210.25;;;13.40;53.06
10700;BME280;5401;41.986;21.452;2023-03-21T08:29:38;98209.41;;;13.51;53.44
10700;BME280;5401;41.986;21.452;2023-03-21T08:32:07;98205.91;;;13.73;53.47
10700;BME280;5401;41.986;21.452;2023-03-21T08:34:35;98203.66;;;13.92;52.23
10700;BME280;5401;41.986;21.452;2023-03-21T08:37:02;98194.25;;;14.18;52.44
10700;BME280;5401;41.986;21.452;2023-03-21T08:39:30;98194.66;;;14.37;51.83
10700;BME280;5401;41.986;21.452;2023-03-21T08:41:57;98210.47;;;14.62;52.33
10700;BME280;5401;41.986;21.452;2023-03-21T08:44:27;98192.72;;;14.77;51.13
10700;BME280;5401;41.986;21.452;2023-03-21T08:46:55;98196.66;;;15.02;51.23
10700;BME280;5401;41.986;21.452;2023-03-21T08:49:22;98190.84;;;15.37;51.29
10700;BME280;5401;41.986;21.452;2023-03-21T08:51:54;98194.06;;;15.72;50.77
10700;BME280;5401;41.986;21.452;2023-03-21T08:54:22;98184.97;;;15.78;50.60
10700;BME280;5401;41.986;21.452;2023-03-21T08:56:49;98177.09;;;15.76;50.59
10700;BME280;5401;41.986;21.452;2023-03-21T08:59:17;98182.13;;;15.89;50.28
10700;BME280;5401;41.986;21.452;2023-03-21T09:01:46;98166.06;;;15.99;50.31
10700;BME280;5401;41.986;21.452;2023-03-21T09:04:13;98175.31;;;16.03;50.31
10700;BME280;5401;41.986;21.452;2023-03-21T09:06:44;98173.91;;;16.17;50.18
10700;BME280;5401;41.986;21.452;2023-03-21T09:09:13;98167.06;;;16.31;49.96
10700;BME280;5401;41.986;21.452;2023-03-21T09:11:41;98173.59;;;16.35;49.47
10700;BME280;5401;41.986;21.452;2023-03-21T09:14:08;98165.28;;;16.41;49.63
10700;BME280;5401;41.986;21.452;2023-03-21T09:16:36;98154.94;;;16.59;48.97
10700;BME280;5401;41.986;21.452;2023-03-21T09:19:05;98151.19;;;16.60;49.47
10700;BME280;5401;41.986;21.452;2023-03-21T09:21:34;98152.47;;;16.58;49.23
10700;BME280;5401;41.986;21.452;2023-03-21T09:24:03;98155.50;;;16.61;48.84
10700;BME280;5401;41.986;21.452;2023-03-21T09:26:32;98159.88;;;16.67;48.96
10700;BME280;5401;41.986;21.452;2023-03-21T09:28:59;98156.41;;;16.72;48.40
10700;BME280;5401;41.986;21.452;2023-03-21T09:31:30;98148.06;;;16.73;48.82
10700;BME280;5401;41.986;21.452;2023-03-21T09:33:57;98127.22;;;16.74;48.80
10700;BME280;5401;41.986;21.452;2023-03-21T09:36:27;98147.94;;;16.89;48.28
10700;BME280;5401;41.986;21.452;2023-03-21T09:38:57;98142.28;;;16.91;48.45
10700;BME280;5401;41.986;21.452;2023-03-21T09:41:38;98137.03;;;16.79;48.28
10700;BME280;5401;41.986;21.452;2023-03-21T09:44:19;98088.47;;;16.32;48.98
10700;BME280;5401;41.986;21.452;2023-03-21T09:46:57;98118.41;;;16.31;49.53
10700;BME280;5401;41.986;21.452;2023-03-21T09:49:29;98124.47;;;16.16;49.53
10700;BME280;5401;41.986;21.452;2023-03-21T09:52:03;98117.91;;;16.34;49.70
10700;BME280;5401;41.986;21.452;2023-03-21T09:54:36;98105.41;;;16.54;49.61
10700;BME280;5401;41.986;21.452;2023-03-21T09:57:12;98104.53;;;16.75;48.76
10700;BME280;5401;41.986;21.452;2023-03-21T09:59:46;98092.75;;;16.90;48.84
10700;BME280;5401;41.986;21.452;2023-03-21T10:02:25;98094.88;;;17.14;48.15
10700;BME280;5401;41.986;21.452;2023-03-21T10:04:58;98105.91;;;17.39;48.97
10700;BME280;5401;41.986;21.452;2023-03-21T10:07:28;98083.47;;;17.49;47.91
10700;BME280;5401;41.986;21.452;2023-03-21T10:09:59;98106.94;;;17.84;48.28
10700;BME280;5401;41.986;21.452;2023-03-21T10:12:29;98112.50;;;18.09;48.03
10700;BME280;5401;41.986;21.452;2023-03-21T10:14:59;98105.75;;;18.16;47.46
10700;BME280;5401;41.986;21.452;2023-03-21T10:17:33;98100.66;;;18.34;47.45
10700;BME280;5401;41.986;21.452;2023-03-21T10:20:12;98106.69;;;18.61;46.71
10700;BME280;5401;41.986;21.452;2023-03-21T10:22:44;98105.06;;;18.70;47.24
10700;BME280;5401;41.986;21.452;2023-03-21T10:25:15;98081.47;;;18.51;47.17
10700;BME280;5401;41.986;21.452;2023-03-21T10:27:44;98084.97;;;18.56;46.50
10700;BME280;5401;41.986;21.452;2023-03-21T10:30:25;98095.03;;;18.75;46.76
10700;BME280;5401;41.986;21.452;2023-03-21T10:32:56;98098.84;;;18.89;46.22
10700;BME280;5401;41.986;21.452;2023-03-21T10:35:27;98102.94;;;18.96;46.07
10700;BME280;5401;41.986;21.452;2023-03-21T10:37:58;98095.34;;;18.98;46.51
10700;BME280;5401;41.986;21.452;2023-03-21T10:40:26;98097.25;;;19.03;46.46
10700;BME280;5401;41.986;21.452;2023-03-21T10:42:54;98093.72;;;19.07;46.05
10700;BME280;5401;41.986;21.452;2023-03-21T10:45:23;98078.25;;;19.08;45.83
10700;BME280;5401;41.986;21.452;2023-03-21T10:47:50;98084.47;;;19.18;46.03
10700;BME280;5401;41.986;21.452;2023-03-21T10:50:20;98079.06;;;19.08;45.88
10700;BME280;5401;41.986;21.452;2023-03-21T10:52:54;98082.59;;;19.04;46.12
10700;BME280;5401;41.986;21.452;2023-03-21T10:55:28;98089.38;;;18.96;45.49
10700;BME280;5401;41.986;21.452;2023-03-21T10:57:59;98072.53;;;18.90;45.72
10700;BME280;5401;41.986;21.452;2023-03-21T11:00:29;98073.63;;;18.79;45.38
10700;BME280;5401;41.986;21.452;2023-03-21T11:03:01;98071.69;;;18.74;45.85
10700;BME280;5401;41.986;21.452;2023-03-21T11:05:34;98068.19;;;18.84;45.49
10700;BME280;5401;41.986;21.452;2023-03-21T11:08:04;98062.22;;;18.92;45.51
10700;BME280;5401;41.986;21.452;2023-03-21T11:10:35;98064.16;;;19.01;45.26
10700;BME280;5401;41.986;21.452;2023-03-21T11:13:06;98055.44;;;18.84;45.56
10700;BME280;5401;41.986;21.452;2023-03-21T11:15:41;98052.47;;;18.81;44.86
10700;BME280;5401;41.986;21.452;2023-03-21T11:18:18;98055.19;;;18.91;44.80
10700;BME280;5401;41.986;21.452;2023-03-21T11:20:52;98048.94;;;18.85;45.02
10700;BME280;5401;41.986;21.452;2023-03-21T11:23:22;98031.84;;;18.75;45.04
10700;BME280;5401;41.986;21.452;2023-03-21T11:25:54;98057.34;;;18.84;44.93
10700;BME280;5401;41.986;21.452;2023-03-21T11:28:25;98049.72;;;18.66;45.05
10700;BME280;5401;41.986;21.452;2023-03-21T11:31:00;98033.19;;;18.53;45.07
10700;BME280;5401;41.986;21.452;2023-03-21T11:33:32;98036.16;;;18.66;44.94
10700;BME280;5401;41.986;21.452;2023-03-21T11:36:03;98048.09;;;18.70;45.20
10700;BME280;5401;41.986;21.452;2023-03-21T11:38:35;98055.19;;;18.71;45.48
10700;BME280;5401;41.986;21.452;2023-03-21T11:41:05;98043.78;;;18.69;44.58
10700;BME280;5401;41.986;21.452;2023-03-21T11:43:35;98045.13;;;18.71;45.05
10700;BME280;5401;41.986;21.452;2023-03-21T11:46:06;98041.59;;;18.76;45.09
10700;BME280;5401;41.986;21.452;2023-03-21T11:48:38;98039.97;;;18.80;44.64
10700;BME280;5401;41.986;21.452;2023-03-21T11:51:11;98048.38;;;18.78;45.39
10700;BME280;5401;41.986;21.452;2023-03-21T11:53:48;98037.00;;;18.71;44.52
10700;BME280;5401;41.986;21.452;2023-03-21T11:56:27;98026.41;;;18.60;45.03
10700;BME280;5401;41.986;21.452;2023-03-21T11:59:13;98025.88;;;18.53;45.37
10700;BME280;5401;41.986;21.452;2023-03-21T12:01:54;98022.06;;;18.49;45.68
10700;BME280;5401;41.986;21.452;2023-03-21T12:04:45;98028.03;;;18.51;45.22
10700;BME280;5401;41.986;21.452;2023-03-21T12:07:27;98007.97;;;18.47;44.85
10700;BME280;5401;41.986;21.452;2023-03-21T12:10:09;98013.69;;;18.51;44.80
10700;BME280;5401;41.986;21.452;2023-03-21T12:12:48;98018.81;;;18.47;45.02
10700;BME280;5401;41.986;21.452;2023-03-21T12:15:23;98009.63;;;18.48;45.64
10700;BME280;5401;41.986;21.452;2023-03-21T12:17:58;98000.09;;;18.36;45.35
10700;BME280;5401;41.986;21.452;2023-03-21T12:20:43;98013.66;;;18.36;45.88
10700;BME280;5401;41.986;21.452;2023-03-21T12:26:19;98014.72;;;18.25;46.00
10700;BME280;5401;41.986;21.452;2023-03-21T12:29:07;98003.59;;;18.22;45.29
10700;BME280;5401;41.986;21.452;2023-03-21T12:31:51;97998.19;;;18.22;45.51
10700;BME280;5401;41.986;21.452;2023-03-21T12:34:34;97994.91;;;18.10;45.17
10700;BME280;5401;41.986;21.452;2023-03-21T12:37:14;97991.69;;;18.08;46.17
10700;BME280;5401;41.986;21.452;2023-03-21T12:39:45;97991.91;;;18.06;46.20
10700;BME280;5401;41.986;21.452;2023-03-21T12:42:31;97986.19;;;18.03;45.37
10700;BME280;5401;41.986;21.452;2023-03-21T12:45:09;97990.25;;;18.00;45.31
10700;BME280;5401;41.986;21.452;2023-03-21T12:47:40;97988.88;;;17.88;45.30
10700;BME280;5401;41.986;21.452;2023-03-21T12:50:14;97985.88;;;17.89;46.33
10700;BME280;5401;41.986;21.452;2023-03-21T12:52:45;97991.31;;;17.80;46.51
10700;BME280;5401;41.986;21.452;2023-03-21T12:55:17;97985.84;;;17.70;46.04
10700;BME280;5401;41.986;21.452;2023-03-21T12:57:48;97983.41;;;17.63;46.78
10700;BME280;5401;41.986;21.452;2023-03-21T13:00:21;97983.63;;;17.57;45.71
10700;BME280;5401;41.986;21.452;2023-03-21T13:02:55;97984.97;;;17.50;46.18
10700;BME280;5401;41.986;21.452;2023-03-21T13:05:29;97975.69;;;17.36;46.94
10700;BME280;5401;41.986;21.452;2023-03-21T13:08:00;97982.94;;;17.25;46.49
10700;BME280;5401;41.986;21.452;2023-03-21T13:10:29;97982.66;;;17.17;46.31
10700;BME280;5401;41.986;21.452;2023-03-21T13:13:03;97968.50;;;17.10;47.01
10700;BME280;5401;41.986;21.452;2023-03-21T13:15:50;97965.78;;;17.10;46.68
10700;BME280;5401;41.986;21.452;2023-03-21T13:18:37;97965.53;;;17.12;46.74
10700;BME280;5401;41.986;21.452;2023-03-21T13:21:12;97969.13;;;17.17;46.74
10700;BME280;5401;41.986;21.452;2023-03-21T13:23:55;97976.44;;;17.21;47.80
10700;BME280;5401;41.986;21.452;2023-03-21T13:26:32;97966.41;;;17.22;47.11
10700;BME280;5401;41.986;21.452;2023-03-21T13:29:00;97965.91;;;17.25;47.69
10700;BME280;5401;41.986;21.452;2023-03-21T13:31:29;97961.31;;;17.25;47.40